Time,TemperatureF,DewpointF,PressureIn,WindDirection,WindDirectionDegrees,WindSpeedMPH,WindSpeedGustMPH,Humidity,HourlyPrecipIn,Conditions,Clouds,dailyrainin,SoftwareType,DateUTC
2013-08-16 00:00:00,60.2,57.9,30.13,ENE,58,0.0,0.0,92,0.00,,---,0.00,VWS V14.01,2013-08-16 05:00:00,
2013-08-16 00:02:00,60.1,57.8,30.13,ENE,58,0.0,0.0,92,0.00,,---,0.00,VWS V14.01,2013-08-16 05:02:00,
2013-08-16 00:07:00,59.9,57.3,30.13,ENE,58,0.0,0.0,91,0.00,,---,0.00,VWS V14.01,2013-08-16 05:07:00,
2013-08-16 00:12:00,59.8,57.2,30.13,ENE,58,0.0,0.0,91,0.00,,---,0.00,VWS V14.01,2013-08-16 05:12:00,
2013-08-16 00:19:00,59.6,57.0,30.13,ENE,59,0.0,0.0,91,0.00,,---,0.00,VWS V14.01,2013-08-16 05:19:00,
2013-08-16 00:24:00,59.5,57.2,30.13,ENE,58,0.0,0.0,92,0.00,,---,0.00,VWS V14.01,2013-08-16 05:24:00,
2013-08-16 00:29:00,59.5,57.2,30.13,ENE,58,0.0,0.0,92,0.00,,---,0.00,VWS V14.01,2013-08-16 05:29:00,
2013-08-16 00:30:00,59.5,57.2,30.13,ENE,59,0.0,0.0,92,0.00,,---,0.00,VWS V14.01,2013-08-16 05:30:00,
2013-08-16 00:35:00,59.5,57.2,30.13,ENE,59,0.0,0.0,92,0.00,,---,0.00,VWS V14.01,2013-08-16 05:35:00,
2013-08-16 00:40:00,59.4,57.1,30.13,ENE,58,0.0,0.0,92,0.00,,---,0.00,VWS V14.01,2013-08-16 05:40:00,
2013-08-16 00:45:00,59.4,57.1,30.13,ENE,59,0.0,0.0,92,0.00,,---,0.00,VWS V14.01,2013-08-16 05:45:00,
2013-08-16 00:50:00,59.3,57.0,30.13,ENE,58,0.0,0.0,92,0.00,,---,0.00,VWS V14.01,2013-08-16 05:50:00,
2013-08-16 00:55:00,59.3,57.0,30.13,ENE,58,0.0,0.0,92,0.00,,---,0.00,VWS V14.01,2013-08-16 05:55:00,
2013-08-16 01:00:00,59.3,57.3,30.13,ENE,59,0.0,0.0,93,0.00,,---,0.00,VWS V14.01,2013-08-16 06:00:00,
2013-08-16 01:05:00,59.3,57.3,30.13,ENE,59,0.0,0.0,93,0.00,,---,0.00,VWS V14.01,2013-08-16 06:05:00,
2013-08-16 01:10:00,59.4,57.4,30.13,ENE,58,0.0,0.0,93,0.00,,---,0.00,VWS V14.01,2013-08-16 06:10:00,
2013-08-16 01:15:00,59.5,57.5,30.13,ENE,58,0.0,0.0,93,0.00,,---,0.00,VWS V14.01,2013-08-16 06:15:00,
2013-08-16 01:20:00,59.8,57.8,30.13,ENE,59,0.0,0.0,93,0.00,,---,0.00,VWS V14.01,2013-08-16 06:20:00,
2013-08-16 01:25:00,59.9,57.9,30.12,ENE,58,0.0,0.0,93,0.00,,---,0.00,VWS V14.01,2013-08-16 06:25:00,
2013-08-16 01:30:00,59.9,57.9,30.12,ENE,58,0.0,0.0,93,0.00,,---,0.00,VWS V14.01,2013-08-16 06:30:00,
2013-08-16 01:35:00,59.9,57.9,30.12,ENE,58,0.0,0.0,93,0.00,,---,0.00,VWS V14.01,2013-08-16 06:35:00,
2013-08-16 01:41:00,59.9,57.9,30.12,ENE,58,0.0,0.0,93,0.00,,---,0.00,VWS V14.01,2013-08-16 06:41:00,
2013-08-16 01:46:00,59.9,57.9,30.12,ENE,58,0.0,0.0,93,0.00,,---,0.00,VWS V14.01,2013-08-16 06:46:00,
2013-08-16 01:51:00,59.9,57.9,30.12,ENE,58,0.0,0.0,93,0.00,,---,0.00,VWS V14.01,2013-08-16 06:51:00,
2013-08-16 01:56:00,59.9,57.9,30.12,ENE,58,0.0,0.0,93,0.00,,---,0.00,VWS V14.01,2013-08-16 06:56:00,
2013-08-16 02:00:00,59.9,57.6,30.12,ENE,58,0.0,0.0,92,0.00,,---,0.00,VWS V14.01,2013-08-16 07:00:00,
2013-08-16 02:01:00,60.0,57.7,30.12,ENE,59,0.0,0.0,92,0.00,,---,0.00,VWS V14.01,2013-08-16 07:01:00,
2013-08-16 02:06:00,60.0,57.7,30.12,ENE,58,0.0,0.0,92,0.00,,---,0.00,VWS V14.01,2013-08-16 07:06:00,
2013-08-16 02:11:00,60.0,57.4,30.12,ENE,58,0.0,0.0,91,0.00,,---,0.00,VWS V14.01,2013-08-16 07:11:00,
2013-08-16 02:16:00,60.1,57.8,30.12,ENE,58,0.0,0.0,92,0.00,,---,0.00,VWS V14.01,2013-08-16 07:16:00,
2013-08-16 02:21:00,60.1,57.5,30.12,NE,45,0.0,1.0,91,0.00,,---,0.00,VWS V14.01,2013-08-16 07:21:00,
2013-08-16 02:26:00,60.1,57.5,30.12,NE,37,0.0,2.0,91,0.00,,---,0.00,VWS V14.01,2013-08-16 07:26:00,
2013-08-16 02:30:00,60.1,57.5,30.12,NE,37,0.0,2.0,91,0.00,,---,0.00,VWS V14.01,2013-08-16 07:30:00,
2013-08-16 02:31:00,60.0,57.1,30.12,NE,37,0.0,0.0,90,0.00,,---,0.00,VWS V14.01,2013-08-16 07:31:00,
2013-08-16 02:36:00,60.0,57.4,30.12,NE,37,0.0,0.0,91,0.00,,---,0.00,VWS V14.01,2013-08-16 07:36:00,
2013-08-16 02:41:00,59.9,57.3,30.12,NE,37,0.0,0.0,91,0.00,,---,0.00,VWS V14.01,2013-08-16 07:41:00,
2013-08-16 02:47:00,59.8,57.2,30.12,NE,37,0.0,0.0,91,0.00,,---,0.00,VWS V14.01,2013-08-16 07:47:00,
2013-08-16 02:52:00,59.7,57.1,30.12,NE,37,0.0,0.0,91,0.00,,---,0.00,VWS V14.01,2013-08-16 07:52:00,
2013-08-16 02:57:00,59.7,57.1,30.12,NNE,32,0.0,0.0,91,0.00,,---,0.00,VWS V14.01,2013-08-16 07:57:00,
2013-08-16 03:00:00,59.7,57.1,30.12,NNE,32,0.0,0.0,91,0.00,,---,0.00,VWS V14.01,2013-08-16 08:00:00,
2013-08-16 03:02:00,59.8,57.2,30.12,NNE,32,0.0,0.0,91,0.00,,---,0.00,VWS V14.01,2013-08-16 08:02:00,
2013-08-16 03:07:00,59.8,57.2,30.12,NNE,32,0.0,0.0,91,0.00,,---,0.00,VWS V14.01,2013-08-16 08:07:00,
2013-08-16 03:12:00,59.8,57.2,30.12,NNE,32,0.0,0.0,91,0.00,,---,0.00,VWS V14.01,2013-08-16 08:12:00,
2013-08-16 03:17:00,59.8,57.2,30.11,NNE,32,0.0,0.0,91,0.00,,---,0.00,VWS V14.01,2013-08-16 08:17:00,
2013-08-16 03:22:00,59.7,57.1,30.12,NNE,32,0.0,0.0,91,0.00,,---,0.00,VWS V14.01,2013-08-16 08:22:00,
2013-08-16 03:27:00,59.6,57.0,30.12,NNE,32,0.0,0.0,91,0.00,,---,0.00,VWS V14.01,2013-08-16 08:27:00,
2013-08-16 03:30:00,59.6,57.0,30.12,NNE,32,0.0,0.0,91,0.00,,---,0.00,VWS V14.01,2013-08-16 08:30:00,
2013-08-16 03:32:00,59.5,56.9,30.12,NNE,32,0.0,0.0,91,0.00,,---,0.00,VWS V14.01,2013-08-16 08:32:00,
2013-08-16 03:37:00,59.4,56.8,30.12,NNE,32,0.0,0.0,91,0.00,,---,0.00,VWS V14.01,2013-08-16 08:37:00,
2013-08-16 03:42:00,59.4,56.8,30.12,NNE,32,0.0,0.0,91,0.00,,---,0.00,VWS V14.01,2013-08-16 08:42:00,
2013-08-16 03:47:00,59.3,56.7,30.12,NNE,32,0.0,0.0,91,0.00,,---,0.00,VWS V14.01,2013-08-16 08:47:00,
2013-08-16 03:52:00,59.2,56.9,30.12,NNE,32,0.0,0.0,92,0.00,,---,0.00,VWS V14.01,2013-08-16 08:52:00,
2013-08-16 03:58:00,59.0,56.7,30.12,NNE,32,2.0,2.0,92,0.00,,---,0.00,VWS V14.01,2013-08-16 08:58:00,
2013-08-16 04:00:00,59.0,56.7,30.12,NNE,32,1.0,2.0,92,0.00,,---,0.00,VWS V14.01,2013-08-16 09:00:00,
2013-08-16 04:03:00,58.7,56.4,30.12,NNE,32,0.0,3.0,92,0.00,,---,0.00,VWS V14.01,2013-08-16 09:03:00,
2013-08-16 04:08:00,58.6,56.3,30.12,NNE,32,0.0,3.0,92,0.00,,---,0.00,VWS V14.01,2013-08-16 09:08:00,
2013-08-16 04:13:00,58.4,56.1,30.12,North,360,4.0,4.0,92,0.00,,---,0.00,VWS V14.01,2013-08-16 09:13:00,
2013-08-16 04:18:00,58.1,55.8,30.12,North,360,3.0,4.0,92,0.00,,---,0.00,VWS V14.01,2013-08-16 09:18:00,
2013-08-16 04:23:00,57.8,55.2,30.12,North,360,2.0,4.0,91,0.00,,---,0.00,VWS V14.01,2013-08-16 09:23:00,
2013-08-16 04:28:00,57.6,55.3,30.13,North,360,0.0,0.0,92,0.00,,---,0.00,VWS V14.01,2013-08-16 09:28:00,
2013-08-16 04:30:00,57.7,55.4,30.12,North,360,0.0,4.0,92,0.00,,---,0.00,VWS V14.01,2013-08-16 09:30:00,
2013-08-16 04:33:00,57.5,55.2,30.13,North,360,3.0,3.0,92,0.00,,---,0.00,VWS V14.01,2013-08-16 09:33:00,
2013-08-16 04:38:00,57.3,55.0,30.13,North,360,0.0,3.0,92,0.00,,---,0.00,VWS V14.01,2013-08-16 09:38:00,
2013-08-16 04:43:00,57.2,54.9,30.13,North,360,0.0,3.0,92,0.00,,---,0.00,VWS V14.01,2013-08-16 09:43:00,
2013-08-16 04:48:00,57.0,54.7,30.13,North,360,0.0,3.0,92,0.00,,---,0.00,VWS V14.01,2013-08-16 09:48:00,
2013-08-16 04:53:00,56.9,54.6,30.13,North,360,0.0,3.0,92,0.00,,---,0.00,VWS V14.01,2013-08-16 09:53:00,
2013-08-16 04:58:00,56.8,54.5,30.13,North,360,0.0,0.0,92,0.00,,---,0.00,VWS V14.01,2013-08-16 09:58:00,
2013-08-16 05:00:00,56.8,54.5,30.13,North,360,0.0,3.0,92,0.00,,---,0.00,VWS V14.01,2013-08-16 10:00:00,
2013-08-16 05:03:00,56.6,54.3,30.13,North,360,0.0,0.0,92,0.00,,---,0.00,VWS V14.01,2013-08-16 10:03:00,
2013-08-16 05:09:00,56.4,54.1,30.13,North,360,0.0,0.0,92,0.00,,---,0.00,VWS V14.01,2013-08-16 10:09:00,
2013-08-16 05:14:00,56.4,54.4,30.14,North,360,0.0,0.0,93,0.00,,---,0.00,VWS V14.01,2013-08-16 10:14:00,
2013-08-16 05:19:00,56.5,54.5,30.14,North,360,0.0,0.0,93,0.00,,---,0.00,VWS V14.01,2013-08-16 10:19:00,
2013-08-16 05:24:00,56.6,54.6,30.14,North,360,0.0,0.0,93,0.00,,---,0.00,VWS V14.01,2013-08-16 10:24:00,
2013-08-16 05:29:00,56.6,54.6,30.14,North,360,0.0,0.0,93,0.00,,---,0.00,VWS V14.01,2013-08-16 10:29:00,
2013-08-16 05:30:00,56.6,54.6,30.14,North,360,0.0,0.0,93,0.00,,---,0.00,VWS V14.01,2013-08-16 10:30:00,
2013-08-16 05:34:00,56.6,54.3,30.14,North,360,0.0,0.0,92,0.00,,---,0.00,VWS V14.01,2013-08-16 10:34:00,
2013-08-16 05:39:00,56.5,54.2,30.14,North,360,0.0,0.0,92,0.00,,---,0.00,VWS V14.01,2013-08-16 10:39:00,
2013-08-16 05:44:00,56.4,54.1,30.14,North,360,0.0,0.0,92,0.00,,---,0.00,VWS V14.01,2013-08-16 10:44:00,
2013-08-16 05:49:00,56.3,54.0,30.14,North,360,0.0,0.0,92,0.00,,---,0.00,VWS V14.01,2013-08-16 10:49:00,
2013-08-16 05:54:00,56.3,54.0,30.14,North,360,1.0,2.0,92,0.00,,---,0.00,VWS V14.01,2013-08-16 10:54:00,
2013-08-16 05:59:00,56.4,54.4,30.14,North,360,0.0,2.0,93,0.00,,---,0.00,VWS V14.01,2013-08-16 10:59:00,
2013-08-16 06:00:00,56.4,54.4,30.14,North,360,0.0,2.0,93,0.00,,---,0.00,VWS V14.01,2013-08-16 11:00:00,
2013-08-16 06:04:00,56.5,54.5,30.14,North,360,0.0,2.0,93,0.00,,---,0.00,VWS V14.01,2013-08-16 11:04:00,
2013-08-16 06:09:00,56.4,54.4,30.14,North,360,0.0,2.0,93,0.00,,---,0.00,VWS V14.01,2013-08-16 11:09:00,
2013-08-16 06:14:00,56.4,54.4,30.14,North,360,0.0,2.0,93,0.00,,---,0.00,VWS V14.01,2013-08-16 11:14:00,
2013-08-16 06:20:00,56.3,54.3,30.14,North,5,1.0,2.0,93,0.00,,---,0.00,VWS V14.01,2013-08-16 11:20:00,
2013-08-16 06:25:00,56.2,53.9,30.14,North,5,0.0,3.0,92,0.00,,---,0.00,VWS V14.01,2013-08-16 11:25:00,
2013-08-16 06:30:00,56.1,53.8,30.14,North,5,3.0,3.0,92,0.00,,---,0.00,VWS V14.01,2013-08-16 11:30:00,
2013-08-16 06:35:00,56.1,53.8,30.14,North,11,4.0,4.0,92,0.00,,---,0.00,VWS V14.01,2013-08-16 11:35:00,
2013-08-16 06:40:00,56.3,54.0,30.14,NNE,15,3.0,4.0,92,0.00,,---,0.00,VWS V14.01,2013-08-16 11:40:00,
2013-08-16 06:45:00,56.7,54.1,30.14,NNE,13,4.0,5.0,91,0.00,,---,0.00,VWS V14.01,2013-08-16 11:45:00,
2013-08-16 06:50:00,57.0,54.4,30.14,NNE,15,2.0,5.0,91,0.00,,---,0.00,VWS V14.01,2013-08-16 11:50:00,
2013-08-16 06:55:00,57.3,54.4,30.14,North,10,4.0,5.0,90,0.00,,---,0.00,VWS V14.01,2013-08-16 11:55:00,
2013-08-16 07:00:00,57.7,54.8,30.15,NNE,13,3.0,5.0,90,0.00,,---,0.00,VWS V14.01,2013-08-16 12:00:00,
2013-08-16 07:05:00,58.0,55.1,30.15,NNE,15,4.0,5.0,90,0.00,,---,0.00,VWS V14.01,2013-08-16 12:05:00,
2013-08-16 07:10:00,58.4,55.2,30.15,NE,36,0.0,5.0,89,0.00,,---,0.00,VWS V14.01,2013-08-16 12:10:00,
2013-08-16 07:15:00,58.9,55.7,30.15,NE,37,3.0,5.0,89,0.00,,---,0.00,VWS V14.01,2013-08-16 12:15:00,
2013-08-16 07:20:00,59.4,55.8,30.15,NNE,24,2.0,5.0,88,0.00,,---,0.00,VWS V14.01,2013-08-16 12:20:00,
2013-08-16 07:26:00,59.8,56.2,30.15,North,5,2.0,5.0,88,0.00,,---,0.00,VWS V14.01,2013-08-16 12:26:00,
2013-08-16 07:30:00,59.9,56.3,30.15,North,11,1.0,5.0,88,0.00,,---,0.00,VWS V14.01,2013-08-16 12:30:00,
2013-08-16 07:31:00,60.2,56.3,30.15,North,11,0.0,2.0,87,0.00,,---,0.00,VWS V14.01,2013-08-16 12:31:00,
2013-08-16 07:36:00,60.6,57.0,30.15,NNE,33,0.0,3.0,88,0.00,,---,0.00,VWS V14.01,2013-08-16 12:36:00,
2013-08-16 07:41:00,61.1,57.2,30.15,North,10,2.0,3.0,87,0.00,,---,0.00,VWS V14.01,2013-08-16 12:41:00,
2013-08-16 07:46:00,61.5,57.3,30.15,NNE,15,0.0,4.0,86,0.00,,---,0.00,VWS V14.01,2013-08-16 12:46:00,
2013-08-16 07:51:00,62.0,57.8,30.16,NNE,26,0.0,4.0,86,0.00,,---,0.00,VWS V14.01,2013-08-16 12:51:00,
2013-08-16 07:56:00,62.5,57.9,30.16,NNE,28,0.0,4.0,85,0.00,,---,0.00,VWS V14.01,2013-08-16 12:56:00,
2013-08-16 08:00:00,62.6,58.0,30.16,NNE,28,2.0,5.0,85,0.00,,---,0.00,VWS V14.01,2013-08-16 13:00:00,
2013-08-16 08:01:00,63.0,58.1,30.16,NE,35,0.0,4.0,84,0.00,,---,0.00,VWS V14.01,2013-08-16 13:01:00,
2013-08-16 08:06:00,63.3,58.1,30.16,NNE,17,5.0,5.0,83,0.00,,---,0.00,VWS V14.01,2013-08-16 13:06:00,
2013-08-16 08:11:00,63.7,58.5,30.16,NNE,28,0.0,5.0,83,0.00,,---,0.00,VWS V14.01,2013-08-16 13:11:00,
2013-08-16 08:16:00,64.1,58.2,30.16,NNE,32,0.0,5.0,81,0.00,,---,0.00,VWS V14.01,2013-08-16 13:16:00,
2013-08-16 08:21:00,64.7,58.4,30.16,North,5,2.0,5.0,80,0.00,,---,0.00,VWS V14.01,2013-08-16 13:21:00,
2013-08-16 08:26:00,65.3,59.0,30.16,NNE,29,2.0,5.0,80,0.00,,---,0.00,VWS V14.01,2013-08-16 13:26:00,
2013-08-16 08:30:00,65.3,59.0,30.16,NNE,12,3.0,5.0,80,0.00,,---,0.00,VWS V14.01,2013-08-16 13:30:00,
2013-08-16 08:32:00,65.8,58.8,30.16,NE,42,0.0,4.0,78,0.00,,---,0.00,VWS V14.01,2013-08-16 13:32:00,
2013-08-16 08:37:00,66.2,59.9,30.16,NE,38,4.0,4.0,80,0.00,,---,0.00,VWS V14.01,2013-08-16 13:37:00,
2013-08-16 08:42:00,66.5,59.4,30.16,NNE,24,2.0,4.0,78,0.00,,---,0.00,VWS V14.01,2013-08-16 13:42:00,
2013-08-16 08:47:00,66.9,59.8,30.16,North,5,4.0,5.0,78,0.00,,---,0.00,VWS V14.01,2013-08-16 13:47:00,
2013-08-16 08:52:00,67.3,59.5,30.16,NNE,28,3.0,6.0,76,0.00,,---,0.00,VWS V14.01,2013-08-16 13:52:00,
2013-08-16 08:57:00,67.5,59.7,30.16,North,9,2.0,6.0,76,0.00,,---,0.00,VWS V14.01,2013-08-16 13:57:00,
2013-08-16 09:00:00,67.5,59.7,30.16,North,9,3.0,6.0,76,0.00,,---,0.00,VWS V14.01,2013-08-16 14:00:00,
2013-08-16 09:02:00,67.9,59.7,30.16,NNE,24,4.0,6.0,75,0.00,,---,0.00,VWS V14.01,2013-08-16 14:02:00,
2013-08-16 09:07:00,68.0,59.0,30.16,NNE,27,3.0,6.0,73,0.00,,---,0.00,VWS V14.01,2013-08-16 14:07:00,
2013-08-16 09:12:00,68.2,60.3,30.16,North,9,6.0,6.0,76,0.00,,---,0.00,VWS V14.01,2013-08-16 14:12:00,
2013-08-16 09:17:00,68.4,59.4,30.16,NNE,15,4.0,7.0,73,0.00,,---,0.00,VWS V14.01,2013-08-16 14:17:00,
2013-08-16 09:22:00,68.7,59.7,30.16,North,355,3.0,7.0,73,0.00,,---,0.00,VWS V14.01,2013-08-16 14:22:00,
2013-08-16 09:27:00,69.1,59.7,30.16,NE,36,0.0,2.0,72,0.00,,---,0.00,VWS V14.01,2013-08-16 14:27:00,
2013-08-16 09:30:00,69.1,59.7,30.16,NE,35,2.0,7.0,72,0.00,,---,0.00,VWS V14.01,2013-08-16 14:30:00,
2013-08-16 09:33:00,69.5,59.7,30.16,NNW,348,3.0,5.0,71,0.00,,---,0.00,VWS V14.01,2013-08-16 14:33:00,
2013-08-16 09:38:00,69.9,59.3,30.16,NE,55,5.0,8.0,69,0.00,,---,0.00,VWS V14.01,2013-08-16 14:38:00,
2013-08-16 09:43:00,69.9,59.7,30.16,NE,52,3.0,8.0,70,0.00,,---,0.00,VWS V14.01,2013-08-16 14:43:00,
2013-08-16 09:48:00,70.2,59.6,30.16,NNE,31,3.0,8.0,69,0.00,,---,0.00,VWS V14.01,2013-08-16 14:48:00,
2013-08-16 09:53:00,70.5,59.8,30.16,NNE,17,6.0,8.0,69,0.00,,---,0.00,VWS V14.01,2013-08-16 14:53:00,
2013-08-16 09:58:00,70.7,59.6,30.17,NNE,28,4.0,7.0,68,0.00,,---,0.00,VWS V14.01,2013-08-16 14:58:00,
2013-08-16 10:00:00,70.6,60.0,30.16,North,5,4.0,8.0,69,0.00,,---,0.00,VWS V14.01,2013-08-16 15:00:00,
2013-08-16 10:03:00,71.0,59.9,30.17,NNW,348,3.0,7.0,68,0.00,,---,0.00,VWS V14.01,2013-08-16 15:03:00,
2013-08-16 10:08:00,71.2,59.3,30.16,ENE,59,5.0,7.0,66,0.00,,---,0.00,VWS V14.01,2013-08-16 15:08:00,
2013-08-16 10:13:00,71.3,59.8,30.16,ENE,67,5.0,7.0,67,0.00,,---,0.00,VWS V14.01,2013-08-16 15:13:00,
2013-08-16 10:19:00,71.5,60.8,30.17,NNW,348,0.0,7.0,69,0.00,,---,0.00,VWS V14.01,2013-08-16 15:19:00,
2013-08-16 10:24:00,71.9,59.1,30.17,NNE,26,3.0,7.0,64,0.00,,---,0.00,VWS V14.01,2013-08-16 15:24:00,
2013-08-16 10:29:00,71.9,58.6,30.17,ENE,65,4.0,7.0,63,0.00,,---,0.00,VWS V14.01,2013-08-16 15:29:00,
2013-08-16 10:30:00,71.9,59.5,30.17,NE,53,0.0,7.0,65,0.00,,---,0.00,VWS V14.01,2013-08-16 15:30:00,
2013-08-16 10:34:00,72.0,59.6,30.17,ENE,71,1.0,8.0,65,0.00,,---,0.00,VWS V14.01,2013-08-16 15:34:00,
2013-08-16 10:39:00,72.3,58.6,30.17,NE,55,4.0,8.0,62,0.00,,---,0.00,VWS V14.01,2013-08-16 15:39:00,
2013-08-16 10:44:00,72.3,59.9,30.16,East,86,1.0,8.0,65,0.00,,---,0.00,VWS V14.01,2013-08-16 15:44:00,
2013-08-16 10:49:00,72.6,58.8,30.16,NNE,22,2.0,8.0,62,0.00,,---,0.00,VWS V14.01,2013-08-16 15:49:00,
2013-08-16 10:54:00,73.0,59.7,30.16,ENE,60,0.0,8.0,63,0.00,,---,0.00,VWS V14.01,2013-08-16 15:54:00,
2013-08-16 10:59:00,73.1,58.9,30.17,ENE,78,4.0,8.0,61,0.00,,---,0.00,VWS V14.01,2013-08-16 15:59:00,
2013-08-16 11:00:00,73.2,60.3,30.16,NNE,16,4.0,8.0,64,0.00,,---,0.00,VWS V14.01,2013-08-16 16:00:00,
2013-08-16 11:04:00,73.1,58.9,30.17,NE,40,4.0,8.0,61,0.00,,---,0.00,VWS V14.01,2013-08-16 16:04:00,
2013-08-16 11:09:00,72.9,58.7,30.17,East,84,3.0,8.0,61,0.00,,---,0.00,VWS V14.01,2013-08-16 16:09:00,
2013-08-16 11:15:00,73.2,59.4,30.17,NE,37,3.0,8.0,62,0.00,,---,0.00,VWS V14.01,2013-08-16 16:15:00,
2013-08-16 11:20:00,73.4,57.3,30.17,East,80,6.0,8.0,57,0.00,,---,0.00,VWS V14.01,2013-08-16 16:20:00,
2013-08-16 11:25:00,73.6,57.4,30.17,East,98,5.0,8.0,57,0.00,,---,0.00,VWS V14.01,2013-08-16 16:25:00,
2013-08-16 11:30:00,73.7,57.5,30.17,ENE,57,0.0,7.0,57,0.00,,---,0.00,VWS V14.01,2013-08-16 16:30:00,
2013-08-16 11:35:00,74.0,59.2,30.17,ESE,106,1.0,8.0,60,0.00,,---,0.00,VWS V14.01,2013-08-16 16:35:00,
2013-08-16 11:40:00,74.1,58.9,30.17,ENE,59,5.0,8.0,59,0.00,,---,0.00,VWS V14.01,2013-08-16 16:40:00,
2013-08-16 11:45:00,74.2,59.9,30.16,NE,34,6.0,8.0,61,0.00,,---,0.00,VWS V14.01,2013-08-16 16:45:00,
2013-08-16 11:50:00,74.5,58.3,30.16,NNW,330,6.0,8.0,57,0.00,,---,0.00,VWS V14.01,2013-08-16 16:50:00,
2013-08-16 11:55:00,74.8,60.5,30.17,North,360,5.0,8.0,61,0.00,,---,0.00,VWS V14.01,2013-08-16 16:55:00,
2013-08-16 12:00:00,75.2,60.4,30.16,NE,46,4.0,8.0,60,0.00,,---,0.00,VWS V14.01,2013-08-16 17:00:00,
2013-08-16 12:05:00,75.3,59.5,30.16,NNE,16,2.0,9.0,58,0.00,,---,0.00,VWS V14.01,2013-08-16 17:05:00,
2013-08-16 12:10:00,75.5,61.1,30.16,NNW,341,1.0,9.0,61,0.00,,---,0.00,VWS V14.01,2013-08-16 17:10:00,
2013-08-16 12:15:00,75.7,60.8,30.16,ENE,73,3.0,9.0,60,0.00,,---,0.00,VWS V14.01,2013-08-16 17:15:00,
2013-08-16 12:21:00,75.5,57.7,30.16,ENE,57,7.0,9.0,54,0.00,,---,0.00,VWS V14.01,2013-08-16 17:21:00,
2013-08-16 12:26:00,75.4,58.1,30.16,NE,56,9.0,10.0,55,0.00,,---,0.00,VWS V14.01,2013-08-16 17:26:00,
2013-08-16 12:30:00,75.4,58.1,30.16,NNE,29,5.0,10.0,55,0.00,,---,0.00,VWS V14.01,2013-08-16 17:30:00,
2013-08-16 12:31:00,75.3,58.0,30.16,ENE,64,1.0,8.0,55,0.00,,---,0.00,VWS V14.01,2013-08-16 17:31:00,
2013-08-16 12:36:00,75.5,58.2,30.16,North,351,3.0,8.0,55,0.00,,---,0.00,VWS V14.01,2013-08-16 17:36:00,
2013-08-16 12:41:00,75.8,58.0,30.15,NNE,13,3.0,8.0,54,0.00,,---,0.00,VWS V14.01,2013-08-16 17:41:00,
2013-08-16 12:46:00,75.6,57.3,30.15,SE,128,3.0,9.0,53,0.00,,---,0.00,VWS V14.01,2013-08-16 17:46:00,
2013-08-16 12:51:00,76.0,59.2,30.15,ENE,76,5.0,9.0,56,0.00,,---,0.00,VWS V14.01,2013-08-16 17:51:00,
2013-08-16 12:56:00,76.1,58.3,30.15,East,82,2.0,9.0,54,0.00,,---,0.00,VWS V14.01,2013-08-16 17:56:00,
2013-08-16 13:00:00,76.2,59.9,30.15,East,88,5.0,9.0,57,0.00,,---,0.00,VWS V14.01,2013-08-16 18:00:00,
2013-08-16 13:01:00,76.3,57.4,30.15,NNE,26,3.0,7.0,52,0.00,,---,0.00,VWS V14.01,2013-08-16 18:01:00,
2013-08-16 13:06:00,76.4,57.0,30.15,ENE,69,4.0,8.0,51,0.00,,---,0.00,VWS V14.01,2013-08-16 18:06:00,
2013-08-16 13:11:00,76.3,57.9,30.15,NE,49,6.0,8.0,53,0.00,,---,0.00,VWS V14.01,2013-08-16 18:11:00,
2013-08-16 13:16:00,76.6,58.2,30.15,East,92,3.0,11.0,53,0.00,,---,0.00,VWS V14.01,2013-08-16 18:16:00,
2013-08-16 13:21:00,76.9,56.3,30.15,ENE,57,3.0,11.0,49,0.00,,---,0.00,VWS V14.01,2013-08-16 18:21:00,
2013-08-16 13:26:00,77.3,59.9,30.15,NNE,31,4.0,11.0,55,0.00,,---,0.00,VWS V14.01,2013-08-16 18:26:00,
2013-08-16 13:30:00,77.3,59.9,30.15,North,11,6.0,11.0,55,0.00,,---,0.00,VWS V14.01,2013-08-16 18:30:00,
2013-08-16 13:32:00,77.2,58.2,30.15,NNE,19,0.0,6.0,52,0.00,,---,0.00,VWS V14.01,2013-08-16 18:32:00,
2013-08-16 13:37:00,76.8,57.9,30.14,NNW,340,4.0,10.0,52,0.00,,---,0.00,VWS V14.01,2013-08-16 18:37:00,
2013-08-16 13:42:00,76.6,54.9,30.14,ENE,59,3.0,10.0,47,0.00,,---,0.00,VWS V14.01,2013-08-16 18:42:00,
2013-08-16 13:47:00,76.2,55.7,30.14,ENE,62,7.0,10.0,49,0.00,,---,0.00,VWS V14.01,2013-08-16 18:47:00,
2013-08-16 13:52:00,76.6,55.5,30.14,NE,53,7.0,11.0,48,0.00,,---,0.00,VWS V14.01,2013-08-16 18:52:00,
2013-08-16 13:57:00,76.7,51.9,30.14,NNE,30,3.0,11.0,42,0.00,,---,0.00,VWS V14.01,2013-08-16 18:57:00,
2013-08-16 14:00:00,76.7,51.9,30.14,NNE,30,3.0,11.0,42,0.00,,---,0.00,VWS V14.01,2013-08-16 19:00:00,
2013-08-16 14:02:00,76.7,53.2,30.14,East,100,3.0,5.0,44,0.00,,---,0.00,VWS V14.01,2013-08-16 19:02:00,
2013-08-16 14:07:00,77.3,58.8,30.14,East,94,1.0,7.0,53,0.00,,---,0.00,VWS V14.01,2013-08-16 19:07:00,
2013-08-16 14:12:00,77.4,57.3,30.14,ENE,58,4.0,10.0,50,0.00,,---,0.00,VWS V14.01,2013-08-16 19:12:00,
2013-08-16 14:17:00,77.4,56.8,30.13,East,97,2.0,10.0,49,0.00,,---,0.00,VWS V14.01,2013-08-16 19:17:00,
2013-08-16 14:22:00,77.2,57.1,30.13,ESE,105,5.0,10.0,50,0.00,,---,0.00,VWS V14.01,2013-08-16 19:22:00,
2013-08-16 14:27:00,77.2,56.0,30.13,ESE,109,2.0,2.0,48,0.00,,---,0.00,VWS V14.01,2013-08-16 19:27:00,
2013-08-16 14:30:00,77.2,56.0,30.13,ESE,103,0.0,10.0,48,0.00,,---,0.00,VWS V14.01,2013-08-16 19:30:00,
2013-08-16 14:32:00,77.4,56.8,30.13,East,83,6.0,7.0,49,0.00,,---,0.00,VWS V14.01,2013-08-16 19:32:00,
2013-08-16 14:38:00,77.5,54.5,30.13,NE,40,2.0,7.0,45,0.00,,---,0.00,VWS V14.01,2013-08-16 19:38:00,
2013-08-16 14:43:00,77.8,56.6,30.13,NE,36,4.0,7.0,48,0.00,,---,0.00,VWS V14.01,2013-08-16 19:43:00,
2013-08-16 14:48:00,77.6,57.0,30.13,SE,132,3.0,9.0,49,0.00,,---,0.00,VWS V14.01,2013-08-16 19:48:00,
2013-08-16 14:53:00,77.7,54.7,30.13,East,92,6.0,9.0,45,0.00,,---,0.00,VWS V14.01,2013-08-16 19:53:00,
2013-08-16 14:58:00,77.9,58.3,30.13,ESE,121,2.0,2.0,51,0.00,,---,0.00,VWS V14.01,2013-08-16 19:58:00,
2013-08-16 15:00:00,77.9,58.9,30.13,SE,124,2.0,9.0,52,0.00,,---,0.00,VWS V14.01,2013-08-16 20:00:00,
2013-08-16 15:03:00,78.0,57.9,30.13,SE,126,6.0,8.0,50,0.00,,---,0.00,VWS V14.01,2013-08-16 20:03:00,
2013-08-16 15:08:00,78.0,55.6,30.13,SE,124,0.0,8.0,46,0.00,,---,0.00,VWS V14.01,2013-08-16 20:08:00,
2013-08-16 15:13:00,77.9,56.7,30.13,ENE,65,2.0,8.0,48,0.00,,---,0.00,VWS V14.01,2013-08-16 20:13:00,
2013-08-16 15:18:00,77.8,57.1,30.12,East,92,0.0,8.0,49,0.00,,---,0.00,VWS V14.01,2013-08-16 20:18:00,
2013-08-16 15:23:00,77.2,55.4,30.12,NE,54,0.0,8.0,47,0.00,,---,0.00,VWS V14.01,2013-08-16 20:23:00,
2013-08-16 15:28:00,77.1,54.8,30.12,SSE,152,3.0,5.0,46,0.00,,---,0.00,VWS V14.01,2013-08-16 20:28:00,
2013-08-16 15:30:00,77.1,56.5,30.12,ESE,119,5.0,8.0,49,0.00,,---,0.00,VWS V14.01,2013-08-16 20:30:00,
2013-08-16 15:33:00,77.5,56.9,30.12,ESE,119,0.0,5.0,49,0.00,,---,0.00,VWS V14.01,2013-08-16 20:33:00,
2013-08-16 15:38:00,77.9,56.7,30.12,North,350,3.0,7.0,48,0.00,,---,0.00,VWS V14.01,2013-08-16 20:38:00,
2013-08-16 15:43:00,77.7,58.2,30.12,NNW,347,6.0,7.0,51,0.00,,---,0.00,VWS V14.01,2013-08-16 20:43:00,
2013-08-16 15:49:00,78.0,58.4,30.12,NE,55,4.0,7.0,51,0.00,,---,0.00,VWS V14.01,2013-08-16 20:49:00,
2013-08-16 15:54:00,77.9,55.5,30.12,NE,51,2.0,8.0,46,0.00,,---,0.00,VWS V14.01,2013-08-16 20:54:00,
2013-08-16 15:59:00,77.3,55.5,30.12,ENE,71,2.0,7.0,47,0.00,,---,0.00,VWS V14.01,2013-08-16 20:59:00,
2013-08-16 16:00:00,77.5,55.7,30.12,NE,51,3.0,8.0,47,0.00,,---,0.00,VWS V14.01,2013-08-16 21:00:00,
2013-08-16 16:04:00,77.2,56.6,30.12,NE,51,7.0,7.0,49,0.00,,---,0.00,VWS V14.01,2013-08-16 21:04:00,
2013-08-16 16:09:00,77.1,55.3,30.12,East,88,1.0,7.0,47,0.00,,---,0.00,VWS V14.01,2013-08-16 21:09:00,
2013-08-16 16:14:00,77.2,55.4,30.12,NE,38,4.0,7.0,47,0.00,,---,0.00,VWS V14.01,2013-08-16 21:14:00,
2013-08-16 16:19:00,77.1,56.5,30.12,ENE,65,1.0,7.0,49,0.00,,---,0.00,VWS V14.01,2013-08-16 21:19:00,
2013-08-16 16:24:00,77.2,56.0,30.12,NE,51,2.0,7.0,48,0.00,,---,0.00,VWS V14.01,2013-08-16 21:24:00,
2013-08-16 16:29:00,77.4,56.8,30.12,North,355,0.0,2.0,49,0.00,,---,0.00,VWS V14.01,2013-08-16 21:29:00,
2013-08-16 16:30:00,77.3,56.1,30.12,ENE,61,0.0,7.0,48,0.00,,---,0.00,VWS V14.01,2013-08-16 21:30:00,
2013-08-16 16:34:00,77.7,57.6,30.12,North,5,3.0,5.0,50,0.00,,---,0.00,VWS V14.01,2013-08-16 21:34:00,
2013-08-16 16:40:00,78.1,57.4,30.12,NNE,30,0.0,6.0,49,0.00,,---,0.00,VWS V14.01,2013-08-16 21:40:00,
2013-08-16 16:45:00,78.4,58.2,30.12,NNE,13,2.0,6.0,50,0.00,,---,0.00,VWS V14.01,2013-08-16 21:45:00,
2013-08-16 16:50:00,78.5,56.0,30.12,NNE,30,3.0,7.0,46,0.00,,---,0.00,VWS V14.01,2013-08-16 21:50:00,
2013-08-16 16:55:00,78.5,57.8,30.12,North,5,0.0,7.0,49,0.00,,---,0.00,VWS V14.01,2013-08-16 21:55:00,
2013-08-16 17:00:00,78.8,59.7,30.12,North,5,0.0,2.0,52,0.00,,---,0.00,VWS V14.01,2013-08-16 22:00:00,
2013-08-16 17:05:00,78.7,57.4,30.12,ENE,59,3.0,5.0,48,0.00,,---,0.00,VWS V14.01,2013-08-16 22:05:00,
2013-08-16 17:10:00,78.5,58.9,30.12,North,351,2.0,6.0,51,0.00,,---,0.00,VWS V14.01,2013-08-16 22:10:00,
2013-08-16 17:15:00,78.5,57.8,30.12,East,96,1.0,6.0,49,0.00,,---,0.00,VWS V14.01,2013-08-16 22:15:00,
2013-08-16 17:20:00,78.5,56.6,30.12,NE,50,6.0,6.0,47,0.00,,---,0.00,VWS V14.01,2013-08-16 22:20:00,
2013-08-16 17:25:00,78.1,57.4,30.12,ENE,78,5.0,9.0,49,0.00,,---,0.00,VWS V14.01,2013-08-16 22:25:00,
2013-08-16 17:30:00,77.5,56.3,30.12,ENE,74,1.0,3.0,48,0.00,,---,0.00,VWS V14.01,2013-08-16 22:30:00,
2013-08-16 17:35:00,77.3,56.7,30.12,ENE,69,4.0,7.0,49,0.00,,---,0.00,VWS V14.01,2013-08-16 22:35:00,
2013-08-16 17:40:00,76.8,56.8,30.12,ENE,71,1.0,7.0,50,0.00,,---,0.00,VWS V14.01,2013-08-16 22:40:00,
2013-08-16 17:45:00,76.8,58.9,30.12,ENE,71,5.0,7.0,54,0.00,,---,0.00,VWS V14.01,2013-08-16 22:45:00,
2013-08-16 17:51:00,76.9,57.4,30.12,NE,51,1.0,7.0,51,0.00,,---,0.00,VWS V14.01,2013-08-16 22:51:00,
2013-08-16 17:56:00,77.0,58.6,30.12,ENE,57,0.0,7.0,53,0.00,,---,0.00,VWS V14.01,2013-08-16 22:56:00,
2013-08-16 18:00:00,77.1,58.1,30.12,NE,55,0.0,7.0,52,0.00,,---,0.00,VWS V14.01,2013-08-16 23:00:00,
2013-08-16 18:01:00,77.0,58.0,30.12,NE,49,3.0,4.0,52,0.00,,---,0.00,VWS V14.01,2013-08-16 23:01:00,
2013-08-16 18:06:00,77.0,58.0,30.12,ENE,59,4.0,5.0,52,0.00,,---,0.00,VWS V14.01,2013-08-16 23:06:00,
2013-08-16 18:11:00,77.1,57.0,30.12,NE,55,0.0,6.0,50,0.00,,---,0.00,VWS V14.01,2013-08-16 23:11:00,
2013-08-16 18:16:00,77.1,58.1,30.12,NE,55,0.0,6.0,52,0.00,,---,0.00,VWS V14.01,2013-08-16 23:16:00,
2013-08-16 18:21:00,77.2,59.3,30.12,NNE,13,3.0,6.0,54,0.00,,---,0.00,VWS V14.01,2013-08-16 23:21:00,
2013-08-16 18:26:00,77.3,59.4,30.12,NE,40,0.0,6.0,54,0.00,,---,0.00,VWS V14.01,2013-08-16 23:26:00,
2013-08-16 18:30:00,77.3,59.4,30.12,NE,40,0.0,6.0,54,0.00,,---,0.00,VWS V14.01,2013-08-16 23:30:00,
2013-08-16 18:31:00,77.3,59.4,30.12,NE,44,0.0,1.0,54,0.00,,---,0.00,VWS V14.01,2013-08-16 23:31:00,
2013-08-16 18:36:00,77.0,58.6,30.12,NE,44,0.0,1.0,53,0.00,,---,0.00,VWS V14.01,2013-08-16 23:36:00,
2013-08-16 18:41:00,76.7,58.8,30.12,NE,44,0.0,1.0,54,0.00,,---,0.00,VWS V14.01,2013-08-16 23:41:00,
2013-08-16 18:46:00,76.4,58.5,30.12,NE,47,0.0,1.0,54,0.00,,---,0.00,VWS V14.01,2013-08-16 23:46:00,
2013-08-16 18:51:00,76.2,59.4,30.12,NE,47,0.0,1.0,56,0.00,,---,0.00,VWS V14.01,2013-08-16 23:51:00,
2013-08-16 18:56:00,75.8,59.0,30.12,ENE,58,0.0,1.0,56,0.00,,---,0.00,VWS V14.01,2013-08-16 23:56:00,
2013-08-16 19:00:00,75.8,59.5,30.12,ENE,58,0.0,1.0,57,0.00,,---,0.00,VWS V14.01,2013-08-17 00:00:00,
2013-08-16 19:01:00,75.5,59.7,30.12,ENE,58,0.0,1.0,58,0.00,,---,0.00,VWS V14.01,2013-08-17 00:01:00,
2013-08-16 19:06:00,75.2,60.4,30.12,ENE,58,0.0,1.0,60,0.00,,---,0.00,VWS V14.01,2013-08-17 00:06:00,
2013-08-16 19:11:00,75.0,58.8,30.12,ENE,58,0.0,1.0,57,0.00,,---,0.00,VWS V14.01,2013-08-17 00:11:00,
2013-08-16 19:17:00,74.8,59.5,30.12,ENE,58,0.0,1.0,59,0.00,,---,0.00,VWS V14.01,2013-08-17 00:17:00,
2013-08-16 19:22:00,74.6,60.3,30.12,ENE,58,0.0,1.0,61,0.00,,---,0.00,VWS V14.01,2013-08-17 00:22:00,
2013-08-16 19:27:00,74.6,61.2,30.12,ENE,58,0.0,1.0,63,0.00,,---,0.00,VWS V14.01,2013-08-17 00:27:00,
2013-08-16 19:30:00,74.6,61.2,30.12,ENE,58,0.0,1.0,63,0.00,,---,0.00,VWS V14.01,2013-08-17 00:30:00,
2013-08-16 19:32:00,74.5,64.1,30.12,ENE,58,0.0,0.0,70,0.00,,---,0.00,VWS V14.01,2013-08-17 00:32:00,
2013-08-16 19:37:00,74.0,62.4,30.13,ENE,58,0.0,0.0,67,0.00,,---,0.00,VWS V14.01,2013-08-17 00:37:00,
2013-08-16 19:42:00,73.1,61.1,30.13,ENE,58,0.0,0.0,66,0.00,,---,0.00,VWS V14.01,2013-08-17 00:42:00,
2013-08-16 19:47:00,72.1,62.2,30.12,ENE,58,0.0,0.0,71,0.00,,---,0.00,VWS V14.01,2013-08-17 00:47:00,
2013-08-16 19:52:00,71.3,61.8,30.13,ENE,58,0.0,0.0,72,0.00,,---,0.00,VWS V14.01,2013-08-17 00:52:00,
2013-08-16 19:57:00,70.6,61.1,30.13,ENE,58,0.0,0.0,72,0.00,,---,0.00,VWS V14.01,2013-08-17 00:57:00,
2013-08-16 20:00:00,70.6,61.2,30.13,ENE,58,0.0,0.0,72,0.00,,---,0.00,VWS V14.01,2013-08-17 01:00:00,
2013-08-16 20:02:00,70.0,61.3,30.13,ENE,58,0.0,0.0,74,0.00,,---,0.00,VWS V14.01,2013-08-17 01:02:00,
2013-08-16 20:07:00,69.4,61.5,30.13,ENE,58,0.0,0.0,76,0.00,,---,0.00,VWS V14.01,2013-08-17 01:07:00,
2013-08-16 20:12:00,68.9,61.4,30.13,ENE,58,0.0,0.0,77,0.00,,---,0.00,VWS V14.01,2013-08-17 01:12:00,
2013-08-16 20:17:00,68.3,61.2,30.13,ENE,58,0.0,0.0,78,0.00,,---,0.00,VWS V14.01,2013-08-17 01:17:00,
2013-08-16 20:22:00,67.7,61.0,30.13,ENE,58,0.0,0.0,79,0.00,,---,0.00,VWS V14.01,2013-08-17 01:22:00,
2013-08-16 20:27:00,67.1,60.4,30.13,ENE,58,0.0,0.0,79,0.00,,---,0.00,VWS V14.01,2013-08-17 01:27:00,
2013-08-16 20:30:00,67.2,60.5,30.13,ENE,58,0.0,0.0,79,0.00,,---,0.00,VWS V14.01,2013-08-17 01:30:00,
2013-08-16 20:33:00,66.4,59.7,30.13,ENE,58,0.0,0.0,79,0.00,,---,0.00,VWS V14.01,2013-08-17 01:33:00,
2013-08-16 20:38:00,65.6,59.3,30.13,ENE,58,0.0,0.0,80,0.00,,---,0.00,VWS V14.01,2013-08-17 01:38:00,
2013-08-16 20:43:00,64.9,59.3,30.14,ENE,58,0.0,0.0,82,0.00,,---,0.00,VWS V14.01,2013-08-17 01:43:00,
2013-08-16 20:48:00,64.4,59.5,30.14,ENE,58,0.0,0.0,84,0.00,,---,0.00,VWS V14.01,2013-08-17 01:48:00,
2013-08-16 20:53:00,63.9,59.0,30.14,ENE,58,0.0,0.0,84,0.00,,---,0.00,VWS V14.01,2013-08-17 01:53:00,
2013-08-16 20:58:00,63.5,58.6,30.14,ENE,58,0.0,0.0,84,0.00,,---,0.00,VWS V14.01,2013-08-17 01:58:00,
2013-08-16 21:00:00,63.6,58.7,30.14,ENE,58,0.0,0.0,84,0.00,,---,0.00,VWS V14.01,2013-08-17 02:00:00,
2013-08-16 21:03:00,63.2,59.0,30.14,ENE,58,0.0,0.0,86,0.00,,---,0.00,VWS V14.01,2013-08-17 02:03:00,
2013-08-16 21:08:00,62.8,58.6,30.14,ENE,58,0.0,0.0,86,0.00,,---,0.00,VWS V14.01,2013-08-17 02:08:00,
2013-08-16 21:13:00,62.5,58.6,30.14,ENE,58,0.0,0.0,87,0.00,,---,0.00,VWS V14.01,2013-08-17 02:13:00,
2013-08-16 21:18:00,62.4,58.8,30.14,ENE,58,0.0,0.0,88,0.00,,---,0.00,VWS V14.01,2013-08-17 02:18:00,
2013-08-16 21:23:00,62.2,58.6,30.14,ENE,58,0.0,0.0,88,0.00,,---,0.00,VWS V14.01,2013-08-17 02:23:00,
2013-08-16 21:28:00,62.1,58.5,30.14,ENE,58,0.0,0.0,88,0.00,,---,0.00,VWS V14.01,2013-08-17 02:28:00,
2013-08-16 21:30:00,62.1,58.2,30.14,ENE,58,0.0,0.0,87,0.00,,---,0.00,VWS V14.01,2013-08-17 02:30:00,
2013-08-16 21:33:00,62.0,58.1,30.14,ENE,58,0.0,0.0,87,0.00,,---,0.00,VWS V14.01,2013-08-17 02:33:00,
2013-08-16 21:39:00,62.1,58.8,30.15,ENE,58,0.0,0.0,89,0.00,,---,0.00,VWS V14.01,2013-08-17 02:39:00,
2013-08-16 21:44:00,62.3,58.7,30.15,ENE,58,0.0,0.0,88,0.00,,---,0.00,VWS V14.01,2013-08-17 02:44:00,
2013-08-16 21:49:00,62.1,58.5,30.15,ENE,58,0.0,0.0,88,0.00,,---,0.00,VWS V14.01,2013-08-17 02:49:00,
2013-08-16 21:54:00,61.9,58.3,30.14,ENE,58,0.0,0.0,88,0.00,,---,0.00,VWS V14.01,2013-08-17 02:54:00,
2013-08-16 21:59:00,61.7,58.1,30.14,ENE,58,0.0,0.0,88,0.00,,---,0.00,VWS V14.01,2013-08-17 02:59:00,
2013-08-16 22:00:00,61.8,58.2,30.15,ENE,58,0.0,0.0,88,0.00,,---,0.00,VWS V14.01,2013-08-17 03:00:00,
2013-08-16 22:04:00,61.4,57.8,30.14,ENE,58,0.0,0.0,88,0.00,,---,0.00,VWS V14.01,2013-08-17 03:04:00,
2013-08-16 22:09:00,61.2,57.6,30.15,ENE,58,0.0,0.0,88,0.00,,---,0.00,VWS V14.01,2013-08-17 03:09:00,
2013-08-16 22:14:00,60.9,57.6,30.14,ENE,58,0.0,0.0,89,0.00,,---,0.00,VWS V14.01,2013-08-17 03:14:00,
2013-08-16 22:19:00,60.7,57.4,30.15,ENE,58,0.0,0.0,89,0.00,,---,0.00,VWS V14.01,2013-08-17 03:19:00,
2013-08-16 22:24:00,60.5,57.6,30.15,ENE,58,0.0,0.0,90,0.00,,---,0.00,VWS V14.01,2013-08-17 03:24:00,
2013-08-16 22:29:00,60.4,57.5,30.15,ENE,58,0.0,0.0,90,0.00,,---,0.00,VWS V14.01,2013-08-17 03:29:00,
2013-08-16 22:30:00,60.4,57.5,30.15,ENE,58,0.0,0.0,90,0.00,,---,0.00,VWS V14.01,2013-08-17 03:30:00,
2013-08-16 22:34:00,60.2,57.3,30.15,ENE,58,0.0,0.0,90,0.00,,---,0.00,VWS V14.01,2013-08-17 03:34:00,
2013-08-16 22:39:00,59.9,56.7,30.15,ENE,58,0.0,0.0,89,0.00,,---,0.00,VWS V14.01,2013-08-17 03:39:00,
2013-08-16 22:45:00,59.7,56.5,30.15,ENE,58,0.0,0.0,89,0.00,,---,0.00,VWS V14.01,2013-08-17 03:45:00,
2013-08-16 22:50:00,59.6,56.7,30.15,ENE,58,0.0,0.0,90,0.00,,---,0.00,VWS V14.01,2013-08-17 03:50:00,
2013-08-16 22:55:00,59.5,56.6,30.15,ENE,58,0.0,0.0,90,0.00,,---,0.00,VWS V14.01,2013-08-17 03:55:00,
2013-08-16 23:00:00,59.5,56.6,30.15,ENE,58,0.0,0.0,90,0.00,,---,0.00,VWS V14.01,2013-08-17 04:00:00,
2013-08-16 23:01:00,59.4,56.5,30.15,ENE,58,0.0,0.0,90,0.00,,---,0.00,VWS V14.01,2013-08-17 04:01:00,
2013-08-16 23:02:00,59.4,56.5,30.16,ENE,58,0.0,0.0,90,0.00,,---,0.00,VWS V14.01,2013-08-17 04:02:00,
2013-08-16 23:03:00,59.4,56.5,30.16,ENE,58,0.0,0.0,90,0.00,,---,0.00,VWS V14.01,2013-08-17 04:03:00,
2013-08-16 23:08:00,59.4,56.8,30.16,ENE,58,0.0,0.0,91,0.00,,---,0.00,VWS V14.01,2013-08-17 04:08:00,
2013-08-16 23:13:00,59.4,56.8,30.16,ENE,58,0.0,0.0,91,0.00,,---,0.00,VWS V14.01,2013-08-17 04:13:00,
2013-08-16 23:19:00,59.5,56.9,30.16,ENE,58,0.0,0.0,91,0.00,,---,0.00,VWS V14.01,2013-08-17 04:19:00,
2013-08-16 23:24:00,59.5,56.9,30.15,ENE,58,0.0,0.0,91,0.00,,---,0.00,VWS V14.01,2013-08-17 04:24:00,
2013-08-16 23:29:00,59.5,56.9,30.15,ENE,58,0.0,0.0,91,0.00,,---,0.00,VWS V14.01,2013-08-17 04:29:00,
2013-08-16 23:30:00,59.5,56.9,30.16,ENE,58,0.0,0.0,91,0.00,,---,0.00,VWS V14.01,2013-08-17 04:30:00,
2013-08-16 23:34:00,59.4,56.8,30.15,ENE,58,0.0,0.0,91,0.00,,---,0.00,VWS V14.01,2013-08-17 04:34:00,
2013-08-16 23:39:00,59.3,56.7,30.15,ENE,58,0.0,0.0,91,0.00,,---,0.00,VWS V14.01,2013-08-17 04:39:00,
2013-08-16 23:44:00,59.1,56.5,30.15,ENE,58,0.0,0.0,91,0.00,,---,0.00,VWS V14.01,2013-08-17 04:44:00,
2013-08-16 23:49:00,59.1,56.5,30.15,ENE,58,0.0,0.0,91,0.00,,---,0.00,VWS V14.01,2013-08-17 04:49:00,
2013-08-16 23:54:00,59.0,56.4,30.15,ENE,58,0.0,0.0,91,0.00,,---,0.00,VWS V14.01,2013-08-17 04:54:00,
2013-08-16 23:59:00,58.8,56.2,30.15,ENE,58,0.0,0.0,91,0.00,,---,0.00,VWS V14.01,2013-08-17 04:59:00,